createdAt,value
2019-04-13T00:01:11.222Z,48.74
2019-04-13T00:03:40.627Z,48.45
2019-04-13T00:06:40.887Z,48.92
2019-04-13T00:09:12.645Z,48.47
2019-04-13T00:12:00.731Z,48.48
2019-04-13T00:14:30.002Z,48.14
2019-04-13T00:16:59.423Z,49.17
2019-04-13T00:19:28.537Z,48.54
2019-04-13T00:21:58.523Z,48.72
2019-04-13T00:24:27.621Z,49.24
2019-04-13T00:26:56.779Z,49.14
2019-04-13T00:29:26.153Z,48.77
2019-04-13T00:31:55.293Z,49.02
2019-04-13T00:34:24.420Z,48.55
2019-04-13T00:36:53.843Z,48.67
2019-04-13T00:39:22.943Z,48.37
2019-04-13T00:41:52.081Z,49.06
2019-04-13T00:44:21.451Z,49.29
2019-04-13T00:46:50.586Z,49.28
2019-04-13T00:49:19.739Z,49.52
2019-04-13T00:51:49.129Z,49.55
2019-04-13T00:54:18.261Z,49.91
2019-04-13T00:56:48.240Z,49.61
2019-04-13T00:59:20.582Z,49.61
2019-04-13T01:01:50.682Z,49.03
2019-04-13T01:04:21.922Z,49.38
2019-04-13T01:06:56.685Z,49.53
2019-04-13T01:09:26.159Z,50.14
2019-04-13T01:12:00.886Z,50.16
2019-04-13T01:14:32.576Z,49.63
2019-04-13T01:17:05.494Z,50.52
2019-04-13T01:19:34.668Z,50.66
2019-04-13T01:22:04.619Z,50.30
2019-04-13T01:24:34.614Z,50.89
2019-04-13T01:27:03.734Z,50.05
2019-04-13T01:29:33.357Z,50.42
2019-04-13T01:32:03.540Z,51.00
2019-04-13T01:34:32.642Z,50.96
2019-04-13T01:37:02.059Z,50.63
2019-04-13T01:39:33.493Z,50.25
2019-04-13T01:42:04.272Z,51.05
2019-04-13T01:44:33.701Z,50.58
2019-04-13T01:47:02.864Z,50.31
2019-04-13T01:49:31.959Z,50.88
2019-04-13T01:52:02.849Z,50.87
2019-04-13T01:54:31.887Z,50.92
2019-04-13T01:57:00.991Z,51.37
2019-04-13T01:59:30.464Z,50.73
2019-04-13T02:02:21.552Z,51.20
2019-04-13T02:04:59.532Z,51.03
2019-04-13T02:07:57.315Z,51.53
2019-04-13T02:10:30.329Z,51.34
2019-04-13T02:12:59.833Z,51.88
2019-04-13T02:15:28.927Z,51.23
2019-04-13T02:17:58.065Z,51.92
2019-04-13T02:20:27.631Z,52.45
2019-04-13T02:22:56.751Z,51.72
2019-04-13T02:25:26.912Z,51.76
2019-04-13T02:27:56.502Z,51.63
2019-04-13T02:30:25.619Z,51.77
2019-04-13T02:32:54.783Z,51.31
2019-04-13T02:35:35.501Z,51.18
2019-04-13T02:37:55.087Z,52.29
2019-04-13T02:40:24.225Z,52.23
2019-04-13T02:42:53.778Z,52.90
2019-04-13T02:45:22.886Z,53.69
2019-04-13T02:47:52.010Z,54.17
2019-04-13T02:50:21.466Z,53.67
2019-04-13T02:52:50.572Z,53.52
2019-04-13T02:55:19.715Z,53.07
2019-04-13T02:57:49.254Z,53.35
2019-04-13T03:00:18.364Z,53.78
2019-04-13T03:02:47.634Z,53.29
2019-04-13T03:05:17.041Z,53.01
2019-04-13T03:07:46.197Z,53.14
2019-04-13T03:10:16.261Z,53.30
2019-04-13T03:12:45.644Z,53.84
2019-04-13T03:15:14.971Z,53.05
2019-04-13T03:18:03.572Z,53.06
2019-04-13T03:20:34.177Z,53.20
2019-04-13T03:23:03.270Z,53.60
2019-04-13T03:25:32.849Z,53.64
2019-04-13T03:28:04.547Z,53.43
2019-04-13T03:30:36.443Z,53.66
2019-04-13T03:33:06.030Z,52.77
2019-04-13T03:35:35.120Z,53.05
2019-04-13T03:38:05.116Z,52.49
2019-04-13T03:40:34.546Z,52.66
2019-04-13T03:43:03.661Z,52.89
2019-04-13T03:45:32.772Z,52.87
2019-04-13T03:48:04.319Z,53.16
2019-04-13T03:50:33.108Z,53.72
2019-04-13T03:53:02.242Z,54.18
2019-04-13T03:55:31.656Z,53.75
2019-04-13T03:58:00.798Z,53.45
2019-04-13T04:00:29.910Z,53.23
2019-04-13T04:02:59.366Z,53.42
2019-04-13T04:05:28.495Z,52.96
2019-04-13T04:07:57.601Z,53.37
2019-04-13T04:10:26.999Z,52.99
2019-04-13T04:12:56.116Z,52.93
2019-04-13T04:15:25.490Z,53.59
2019-04-13T04:17:55.123Z,53.42
2019-04-13T04:20:24.225Z,53.09
2019-04-13T04:22:53.333Z,53.61
2019-04-13T04:25:22.834Z,54.71
2019-04-13T04:27:51.955Z,54.93
2019-04-13T04:30:21.928Z,55.30
2019-04-13T04:32:51.497Z,55.28
2019-04-13T04:35:23.420Z,55.14
2019-04-13T04:37:52.631Z,55.20
2019-04-13T04:40:21.793Z,54.88
2019-04-13T04:42:50.919Z,54.68
2019-04-13T04:45:22.980Z,54.41
2019-04-13T04:47:52.095Z,54.21
2019-04-13T04:50:21.230Z,55.07
2019-04-13T04:52:50.587Z,55.32
2019-04-13T04:55:19.767Z,56.02
2019-04-13T04:57:48.848Z,54.97
2019-04-13T05:00:18.216Z,55.14
2019-04-13T05:02:47.332Z,54.44
2019-04-13T05:05:16.489Z,54.37
2019-04-13T05:07:45.921Z,54.43
2019-04-13T05:10:15.088Z,54.17
2019-04-13T05:12:44.181Z,54.99
2019-04-13T05:15:13.550Z,54.69
2019-04-13T05:17:42.734Z,55.02
2019-04-13T05:20:12.059Z,55.48
2019-04-13T05:22:41.535Z,55.55
2019-04-13T05:25:10.673Z,55.60
2019-04-13T05:27:39.799Z,55.81
2019-04-13T05:30:08.911Z,55.38
2019-04-13T05:32:38.136Z,56.05
2019-04-13T05:35:07.621Z,56.04
2019-04-13T05:37:36.726Z,55.64
2019-04-13T05:40:08.897Z,55.81
2019-04-13T05:42:38.276Z,55.88
2019-04-13T05:45:07.497Z,56.42
2019-04-13T05:47:37.970Z,55.87
2019-04-13T05:50:07.529Z,56.43
2019-04-13T05:52:36.623Z,55.87
2019-04-13T05:55:06.947Z,55.85
2019-04-13T05:57:38.736Z,55.64
2019-04-13T06:00:07.270Z,55.98
2019-04-13T06:02:36.746Z,55.93
2019-04-13T06:05:07.682Z,55.69
2019-04-13T06:07:36.979Z,55.25
2019-04-13T06:10:10.004Z,55.56
2019-04-13T06:12:39.179Z,55.27
2019-04-13T06:15:08.532Z,54.39
2019-04-13T06:17:38.212Z,54.34
2019-04-13T06:20:07.450Z,55.17
2019-04-13T06:22:36.577Z,54.60
2019-04-13T06:25:09.627Z,55.11
2019-04-13T06:27:37.358Z,55.49
2019-04-13T06:30:26.234Z,55.88
2019-04-13T06:33:01.511Z,55.28
2019-04-13T06:35:31.492Z,54.65
2019-04-13T06:38:00.594Z,54.74
2019-04-13T06:40:29.737Z,54.92
2019-04-13T06:42:58.885Z,54.44
2019-04-13T06:45:29.356Z,54.59
2019-04-13T06:48:00.438Z,54.49
2019-04-13T06:50:29.356Z,55.19
2019-04-13T06:52:58.788Z,55.00
2019-04-13T06:55:41.191Z,54.49
2019-04-13T06:58:21.043Z,54.29
2019-04-13T07:00:55.643Z,54.07
2019-04-13T07:03:26.639Z,53.98
2019-04-13T07:06:09.042Z,53.53
2019-04-13T07:08:49.972Z,54.16
2019-04-13T07:11:44.948Z,54.71
2019-04-13T07:14:33.187Z,54.69
2019-04-13T07:17:21.366Z,53.80
2019-04-13T07:19:50.868Z,53.17
2019-04-13T07:22:22.232Z,52.65
2019-04-13T07:24:50.906Z,51.68
2019-04-13T07:27:20.368Z,53.00
2019-04-13T07:29:49.505Z,52.80
2019-04-13T07:32:18.747Z,51.22
2019-04-13T07:34:48.208Z,52.05
2019-04-13T07:37:18.293Z,51.95
2019-04-13T07:39:48.416Z,51.77
2019-04-13T07:42:18.195Z,51.48
2019-04-13T07:44:55.500Z,52.01
2019-04-13T07:47:38.677Z,51.76
2019-04-13T07:50:18.637Z,50.44
2019-04-13T07:52:47.948Z,50.92
2019-04-13T07:55:19.152Z,50.47
2019-04-13T07:57:48.212Z,51.24
2019-04-13T08:00:17.312Z,51.45
2019-04-13T08:02:46.762Z,52.00
2019-04-13T08:05:16.394Z,50.23
2019-04-13T08:07:50.019Z,50.40
2019-04-13T08:10:16.862Z,50.01
2019-04-13T08:12:46.181Z,50.88
2019-04-13T08:15:15.505Z,50.85
2019-04-13T08:17:45.090Z,51.57
2019-04-13T08:20:34.317Z,51.53
2019-04-13T08:23:04.521Z,51.28
2019-04-13T08:25:41.668Z,51.12
2019-04-13T08:28:15.034Z,51.59
2019-04-13T08:30:48.992Z,50.86
2019-04-13T08:33:15.476Z,49.55
2019-04-13T08:35:44.580Z,50.42
2019-04-13T08:38:14.551Z,50.66
2019-04-13T08:40:46.554Z,50.10
2019-04-13T08:43:15.094Z,51.12
2019-04-13T08:45:45.009Z,51.09
2019-04-13T08:48:14.705Z,50.97
2019-04-13T08:50:43.870Z,50.04
2019-04-13T08:53:12.987Z,49.59
2019-04-13T08:55:42.736Z,49.85
2019-04-13T08:58:11.925Z,50.74
2019-04-13T09:00:41.058Z,50.63
2019-04-13T09:03:13.580Z,51.61
2019-04-13T09:05:41.320Z,50.70
2019-04-13T09:08:14.185Z,50.03
2019-04-13T09:10:41.624Z,49.55
2019-04-13T09:13:10.992Z,49.42
2019-04-13T09:15:43.711Z,49.31
2019-04-13T09:18:29.929Z,48.86
2019-04-13T09:21:16.669Z,49.97
2019-04-13T09:23:48.081Z,50.27
2019-04-13T09:26:17.056Z,49.61
2019-04-13T09:28:46.099Z,49.71
2019-04-13T09:31:15.258Z,49.61
2019-04-13T09:33:44.695Z,49.78
2019-04-13T09:36:13.849Z,49.46
2019-04-13T09:38:46.739Z,49.91
2019-04-13T09:41:15.124Z,49.29
2019-04-13T09:43:55.693Z,49.47
2019-04-13T09:46:24.276Z,50.61
2019-04-13T09:48:53.384Z,49.92
2019-04-13T09:51:22.528Z,49.75
2019-04-13T09:53:55.957Z,49.68
2019-04-13T09:56:22.821Z,49.64
2019-04-13T09:58:51.961Z,48.37
2019-04-13T10:01:21.079Z,48.32
2019-04-13T10:03:50.216Z,48.79
2019-04-13T10:06:19.755Z,48.18
2019-04-13T10:08:55.941Z,49.26
2019-04-13T10:11:24.011Z,50.18
2019-04-13T10:14:21.417Z,50.48
2019-04-13T10:16:58.630Z,48.70
2019-04-13T10:19:31.364Z,48.54
2019-04-13T10:21:58.853Z,47.79
2019-04-13T10:24:37.758Z,46.69
2019-04-13T10:27:10.228Z,47.50
2019-04-13T10:29:39.661Z,47.52
2019-04-13T10:32:08.898Z,47.60
2019-04-13T10:34:38.316Z,47.14
2019-04-13T10:37:07.489Z,47.02
2019-04-13T10:39:36.632Z,48.08
2019-04-13T10:42:07.114Z,46.15
2019-04-13T10:44:43.236Z,45.91
2019-04-13T10:47:29.214Z,45.94
2019-04-13T10:50:07.438Z,44.90
2019-04-13T10:52:35.061Z,44.68
2019-04-13T10:55:04.544Z,44.40
2019-04-13T10:57:33.759Z,45.15
2019-04-13T11:00:06.305Z,45.75
2019-04-13T11:02:35.427Z,45.31
2019-04-13T11:05:04.690Z,44.73
2019-04-13T11:07:34.850Z,44.78
2019-04-13T11:10:05.471Z,45.39
2019-04-13T11:12:34.707Z,45.48
2019-04-13T11:15:04.940Z,44.64
2019-04-13T11:17:34.160Z,44.69
2019-04-13T11:20:06.496Z,43.90
2019-04-13T11:22:36.204Z,45.21
2019-04-13T11:25:05.544Z,45.82
2019-04-13T11:27:36.640Z,45.42
2019-04-13T11:30:13.067Z,45.13
2019-04-13T11:32:46.272Z,45.22
2019-04-13T11:35:15.753Z,45.59
2019-04-13T11:37:46.187Z,45.68
2019-04-13T11:40:19.269Z,45.63
2019-04-13T11:43:00.640Z,45.88
2019-04-13T11:45:56.147Z,46.32
2019-04-13T11:48:45.854Z,45.76
2019-04-13T11:51:25.579Z,45.52
2019-04-13T11:53:57.844Z,45.39
2019-04-13T11:56:28.933Z,44.61
2019-04-13T11:59:13.066Z,44.59
2019-04-13T12:02:00.980Z,44.03
2019-04-13T12:05:00.139Z,42.69
2019-04-13T12:07:48.698Z,42.27
2019-04-13T12:10:38.882Z,42.17
2019-04-13T12:13:21.256Z,41.34
2019-04-13T12:16:17.682Z,40.78
2019-04-13T12:19:21.461Z,41.97
2019-04-13T12:22:03.717Z,41.96
2019-04-13T12:24:37.702Z,42.48
2019-04-13T12:27:07.274Z,43.39
2019-04-13T12:29:39.288Z,42.57
2019-04-13T12:32:14.252Z,43.18
2019-04-13T12:34:43.655Z,43.05
2019-04-13T12:37:12.800Z,41.77
2019-04-13T12:39:42.040Z,42.36
2019-04-13T12:42:13.667Z,42.03
2019-04-13T12:44:43.120Z,41.81
2019-04-13T12:47:18.096Z,41.26
2019-04-13T12:49:47.485Z,40.90
2019-04-13T12:52:19.350Z,41.46
2019-04-13T12:54:48.503Z,40.60
2019-04-13T12:57:17.923Z,40.17
2019-04-13T12:59:47.063Z,40.07
2019-04-13T13:02:39.465Z,39.10
2019-04-13T13:05:15.816Z,38.80
2019-04-13T13:07:45.060Z,38.48
2019-04-13T13:10:15.312Z,37.75
2019-04-13T13:12:45.664Z,37.85
2019-04-13T13:15:15.702Z,37.19
2019-04-13T13:17:44.892Z,37.13
2019-04-13T13:20:16.531Z,37.75
2019-04-13T13:22:45.248Z,36.84
2019-04-13T13:25:14.695Z,36.39
2019-04-13T13:27:46.135Z,36.17
2019-04-13T13:30:19.501Z,36.17
2019-04-13T13:32:46.571Z,36.47
2019-04-13T13:35:16.948Z,37.12
2019-04-13T13:37:46.410Z,37.42
2019-04-13T13:40:19.795Z,36.70
2019-04-13T13:42:46.382Z,35.92
2019-04-13T13:45:15.831Z,37.08
2019-04-13T13:47:45.023Z,37.37
2019-04-13T13:50:14.656Z,37.60
2019-04-13T13:52:44.094Z,38.45
2019-04-13T13:55:13.206Z,39.77
2019-04-13T13:57:48.608Z,39.51
2019-04-13T14:00:21.890Z,39.75
2019-04-13T14:02:50.950Z,40.59
2019-04-13T14:05:20.103Z,41.28
2019-04-13T14:07:49.209Z,42.20
2019-04-13T14:10:18.334Z,41.37
2019-04-13T14:12:47.768Z,40.50
2019-04-13T14:15:16.906Z,40.79
2019-04-13T14:17:50.430Z,41.02
2019-04-13T14:20:17.322Z,41.87
2019-04-13T14:22:46.438Z,42.20
2019-04-13T14:25:15.694Z,42.17
2019-04-13T14:27:45.187Z,41.99
2019-04-13T14:30:14.644Z,41.08
2019-04-13T14:32:43.748Z,41.15
2019-04-13T14:35:13.332Z,40.42
2019-04-13T14:37:42.465Z,40.26
2019-04-13T14:40:11.562Z,39.33
2019-04-13T14:42:45.276Z,39.53
2019-04-13T14:45:11.943Z,39.99
2019-04-13T14:47:41.254Z,39.76
2019-04-13T14:50:11.229Z,38.91
2019-04-13T14:52:41.298Z,39.00
2019-04-13T14:55:10.480Z,39.11
2019-04-13T14:57:39.913Z,39.31
2019-04-13T15:00:09.532Z,39.63
2019-04-13T15:02:40.000Z,39.64
2019-04-13T15:05:14.644Z,39.26
2019-04-13T15:07:41.335Z,39.49
2019-04-13T15:10:10.591Z,39.46
2019-04-13T15:12:40.068Z,40.58
2019-04-13T15:15:09.415Z,40.98
2019-04-13T15:17:58.033Z,42.11
2019-04-13T15:20:35.324Z,42.38
2019-04-13T15:23:01.206Z,44.28
2019-04-13T15:25:29.401Z,44.79
2019-04-13T15:28:00.075Z,45.26
2019-04-13T15:30:31.095Z,44.76
2019-04-13T15:33:06.811Z,44.05
2019-04-13T15:35:32.455Z,45.25
2019-04-13T15:38:04.657Z,46.95
2019-04-13T15:40:35.433Z,46.51
2019-04-13T15:43:07.886Z,46.19
2019-04-13T15:45:39.563Z,46.49
2019-04-13T15:48:09.626Z,46.00
2019-04-13T15:50:38.775Z,45.02
2019-04-13T15:53:07.959Z,46.07
2019-04-13T15:55:38.340Z,46.46
2019-04-13T15:58:07.906Z,47.06
2019-04-13T16:00:37.530Z,46.99
2019-04-13T16:03:07.117Z,47.12
2019-04-13T16:05:37.327Z,46.77
2019-04-13T16:08:11.057Z,47.19
2019-04-13T16:10:45.577Z,47.58
2019-04-13T16:13:17.651Z,46.95
2019-04-13T16:15:47.516Z,47.10
2019-04-13T16:18:17.602Z,47.05
2019-04-13T16:20:46.852Z,47.38
2019-04-13T16:23:17.383Z,47.01
2019-04-13T16:25:46.625Z,47.52
2019-04-13T16:28:43.940Z,47.47
2019-04-13T16:31:33.254Z,47.22
2019-04-13T16:34:19.977Z,48.27
2019-04-13T16:36:56.200Z,47.04
2019-04-13T16:39:26.364Z,45.03
2019-04-13T16:42:03.344Z,43.32
2019-04-13T16:44:35.368Z,42.92
2019-04-13T16:47:16.658Z,43.61
2019-04-13T16:49:56.574Z,43.74
2019-04-13T16:52:59.536Z,43.32
2019-04-13T16:55:37.433Z,42.58
2019-04-13T16:58:25.794Z,41.88
2019-04-13T17:01:12.505Z,41.16
2019-04-13T17:03:46.629Z,42.26
2019-04-13T17:06:16.782Z,42.49
2019-04-13T17:08:46.953Z,43.29
2019-04-13T17:11:17.138Z,43.48
2019-04-13T17:13:46.899Z,43.86
2019-04-13T17:16:16.998Z,44.04
2019-04-13T17:18:59.133Z,44.15
2019-04-13T17:21:50.229Z,45.24
2019-04-13T17:24:35.197Z,46.77
2019-04-13T17:27:17.298Z,48.41
2019-04-13T17:30:08.953Z,48.54
2019-04-13T17:33:09.166Z,48.97
2019-04-13T17:35:38.877Z,50.16
2019-04-13T17:38:09.224Z,51.18
2019-04-13T17:40:44.887Z,51.67
2019-04-13T17:43:32.446Z,52.40
2019-04-13T17:46:27.657Z,52.55
2019-04-13T17:49:15.544Z,53.77
2019-04-13T17:52:02.839Z,54.41
2019-04-13T17:54:51.874Z,56.23
2019-04-13T17:57:32.910Z,57.62
2019-04-13T18:00:28.700Z,58.30
2019-04-13T18:03:22.099Z,58.78
2019-04-13T18:06:03.388Z,58.74
2019-04-13T18:08:49.459Z,60.27
2019-04-13T18:11:43.227Z,59.70
2019-04-13T18:14:28.190Z,60.46
2019-04-13T18:17:05.174Z,60.70
2019-04-13T18:19:35.648Z,60.22
2019-04-13T18:22:08.467Z,60.33
2019-04-13T18:24:38.571Z,60.07
2019-04-13T18:27:08.790Z,60.56
2019-04-13T18:29:38.820Z,60.68
2019-04-13T18:32:08.158Z,60.41
2019-04-13T18:34:39.265Z,61.34
2019-04-13T18:37:09.062Z,61.75
2019-04-13T18:39:41.990Z,61.47
2019-04-13T18:42:13.265Z,62.27
2019-04-13T18:44:42.976Z,61.56
2019-04-13T18:47:12.702Z,61.13
2019-04-13T18:49:43.179Z,61.60
2019-04-13T18:52:13.724Z,61.41
2019-04-13T18:54:43.237Z,62.85
2019-04-13T18:57:13.696Z,62.50
2019-04-13T18:59:46.710Z,64.22
2019-04-13T19:02:17.182Z,63.48
2019-04-13T19:04:46.921Z,64.10
2019-04-13T19:07:16.964Z,64.47
2019-04-13T19:09:46.449Z,64.68
2019-04-13T19:12:16.278Z,64.92
2019-04-13T19:14:47.728Z,64.96
2019-04-13T19:17:17.091Z,65.24
2019-04-13T19:19:47.219Z,65.61
2019-04-13T19:22:16.444Z,66.28
2019-04-13T19:24:45.816Z,65.76
2019-04-13T19:27:16.980Z,64.81
2019-04-13T19:29:46.356Z,64.72
2019-04-13T19:32:15.618Z,64.94
2019-04-13T19:34:45.253Z,65.89
2019-04-13T19:37:14.474Z,65.38
2019-04-13T19:39:44.860Z,64.81
2019-04-13T19:42:14.377Z,64.14
2019-04-13T19:44:45.608Z,63.92
2019-04-13T19:47:14.804Z,65.11
2019-04-13T19:49:44.280Z,64.39
2019-04-13T19:52:24.497Z,63.61
2019-04-13T19:54:55.445Z,63.80
2019-04-13T19:57:24.575Z,63.85
2019-04-13T19:59:53.738Z,64.38
2019-04-13T20:02:26.331Z,63.70
2019-04-13T20:04:56.615Z,64.31
2019-04-13T20:07:26.071Z,64.48
2019-04-13T20:09:57.265Z,63.81
2019-04-13T20:12:26.768Z,64.36
2019-04-13T20:14:56.904Z,64.05
2019-04-13T20:17:26.260Z,64.59
2019-04-13T20:19:55.390Z,65.01
2019-04-13T20:22:25.389Z,65.60
2019-04-13T20:24:56.305Z,64.95
2019-04-13T20:27:26.112Z,64.26
2019-04-13T20:29:55.984Z,65.07
2019-04-13T20:32:25.490Z,64.64
2019-04-13T20:34:55.588Z,65.29
2019-04-13T20:37:25.251Z,65.77
2019-04-13T20:39:59.011Z,66.18
2019-04-13T20:42:29.527Z,65.50
2019-04-13T20:45:02.819Z,65.42
2019-04-13T20:47:32.983Z,65.40
2019-04-13T20:50:04.497Z,67.64
2019-04-13T20:52:38.237Z,66.91
2019-04-13T20:57:43.536Z,66.61
2019-04-13T21:00:13.952Z,66.92
2019-04-13T21:02:44.095Z,67.16
2019-04-13T21:05:14.269Z,67.30
2019-04-13T21:07:44.473Z,68.80
2019-04-13T21:10:13.902Z,68.35
2019-04-13T21:12:43.060Z,68.93
2019-04-13T21:15:12.189Z,70.56
2019-04-13T21:17:43.919Z,69.63
2019-04-13T21:20:16.481Z,70.67
2019-04-13T21:22:46.432Z,71.11
2019-04-13T21:25:16.286Z,70.25
2019-04-13T21:27:46.633Z,69.06
2019-04-13T21:30:16.503Z,69.45
2019-04-13T21:32:46.575Z,71.15
2019-04-13T21:35:16.471Z,70.83
2019-04-13T21:37:46.623Z,71.26
2019-04-13T21:40:16.592Z,71.89
2019-04-13T21:42:46.853Z,71.85
2019-04-13T21:45:16.765Z,70.99
2019-04-13T21:47:46.955Z,71.35
2019-04-13T21:50:34.770Z,71.06
2019-04-13T21:53:09.825Z,72.13
2019-04-13T21:55:41.905Z,71.50
2019-04-13T21:58:12.030Z,70.48
2019-04-13T22:01:14.865Z,70.83
2019-04-13T22:03:44.766Z,71.53
2019-04-13T22:06:14.654Z,70.75
2019-04-13T22:08:44.921Z,70.30
2019-04-13T22:11:14.902Z,70.63
2019-04-13T22:13:44.673Z,71.21
2019-04-13T22:16:14.483Z,72.27
2019-04-13T22:18:45.355Z,72.05
2019-04-13T22:21:15.501Z,71.66
2019-04-13T22:23:45.388Z,71.68
2019-04-13T22:26:15.816Z,72.63
2019-04-13T22:28:52.526Z,71.99
2019-04-13T22:31:41.672Z,72.14
2019-04-13T22:34:14.257Z,71.41
2019-04-13T22:36:44.500Z,71.64
2019-04-13T22:39:15.866Z,73.17
2019-04-13T22:41:48.427Z,72.81
2019-04-13T22:44:18.239Z,72.06
2019-04-13T22:46:48.456Z,71.74
2019-04-13T22:49:28.519Z,71.72
2019-04-13T22:52:20.034Z,71.80
2019-04-13T22:55:14.348Z,71.98
2019-04-13T22:57:45.656Z,72.22
2019-04-13T23:00:27.916Z,72.02
2019-04-13T23:02:58.175Z,71.15
2019-04-13T23:05:29.155Z,72.33
2019-04-13T23:07:58.842Z,72.31
2019-04-13T23:10:28.924Z,72.90
2019-04-13T23:12:59.296Z,72.26
2019-04-13T23:15:33.080Z,72.99
2019-04-13T23:17:59.533Z,72.10
2019-04-13T23:20:29.918Z,71.53
2019-04-13T23:22:59.163Z,72.71
2019-04-13T23:25:29.062Z,72.30
2019-04-13T23:27:59.205Z,72.23
2019-04-13T23:30:29.150Z,74.15
2019-04-13T23:32:59.529Z,73.86
2019-04-13T23:35:30.129Z,74.30
2019-04-13T23:38:00.605Z,74.60
2019-04-13T23:40:31.003Z,74.33
2019-04-13T23:43:01.495Z,74.70
2019-04-13T23:45:35.207Z,73.60
2019-04-13T23:48:04.872Z,74.14
2019-04-13T23:50:35.003Z,73.44
2019-04-13T23:53:05.432Z,73.82
2019-04-13T23:56:06.241Z,74.66
2019-04-13T23:58:47.218Z,74.47
